Millbrook, AL (36054)

5:42 AM CDT on March 29, 2015 (GMT -0500)
Robinson Springs | | Change Station
CLOSE
Current Station
Personal Weather Station
Location: Millbrook, AL
Elevation: 300 ft
Nearby Weather Stations
Active Advisory: Frost Advisory

Elev 300 ft 32.52 °N, 86.36 °W | Updated 27 seconds ago

Overcast
Overcast
42.4 °F
Feels Like 42 °F
N
2.9
Wind Variable Wind from ESE
Gusts 2.9 mph

Today
High -- | Low -- °F
--% Chance of Precip.
Yesterday
High -- | Low -- °F
Precip. -- in
6:37 AM 7:03 PM
Waxing Gibbous, 70% visible
Pressure 30.34 in
Visibility 10.0 miles
Clouds Overcast 6500 ft
Windchill 42 °F
Dew Point 29 °F
Humidity 58%
Rainfall 0.00 in
Snow Depth Not available.
UV 0 out of 12
Pollen 9.40 out of 12
Air Quality Not available.
Flu Activity Not available.
METAR KMXF 290958Z AUTO 04005KT 10SM OVC065 08/M04 A3033 RMK AO2 SLP274 T00811041

More Conditions Fewer Conditions

Pressure 30.34 in
Visibility 10.0 miles
Clouds Overcast 6500 ft
Windchill 42 °F
Dew Point 29 °F
Humidity 58%
Rainfall 0.00 in
Snow Depth Not available.
UV 0 out of 12
Pollen 9.40 out of 12
Air Quality Not available.
Flu Activity Not available.
METAR KMXF 290958Z AUTO 04005KT 10SM OVC065 08/M04 A3033 RMK AO2 SLP274 T00811041

More Conditions Fewer Conditions

10-Day Weather Forecast

Almanac

Astronomy

Mar. 29, 2015 Rise Set
Actual Time
Civil Twilight
Nautical Twilight
Astronomical Twilight
Moon
Length of Visible Light
Length of Day
Tomorrow will be .
, % of the Moon is Illuminated

Today's Extremes

State Highs State Lows

Community

WunderPhotos

Upload Photos

1,809,214 photos uploaded!

WunderBlogs® & News

Nearby

Air Quality

  Air Quality AQ Index Pollutant
Not available.

Snow Depth

Station Depth Elevation

Earthquake Activity

City Distance Mag. Time & Date
Minimum magnitude displayed is 2.5.

Coastal Water Temperatures

Place Temperature

Stations

Nearby Weather Stations

Station Location Temp. Windchill Dew Point Humidity Wind Precip. Elev Updated Type
                   
Frost Advisory
Statement as of 4:00 AM CDT on March 29, 2015

... Frost advisory remains in effect until 9 am CDT this morning...

* temperatures... 32 to 37.

* Impacts... frost could damage sensitive outdoor plants.

Precautionary/preparedness actions...

A frost advisory means that widespread frost is expected.
Sensitive outdoor plants may be killed if left uncovered.